Time;durP1;ratioP1;P1;durP2;ratioP2;P2;SDS_P1;SDS_P2;PMS_P1;PMS_P2;Temp;Humidity;BMP_temperature;BMP_pressure;BME280_temperature;BME280_humidity;BME280_pressure;Samples;Min_cycle;Max_cycle;Signal;HPM_P1;HPM_P2
2020/12/23 00:00:37;;;;;;;18.73;2.80;;;;;;;5.06;83.99;100988.72;5155504;27;20850;-57
2020/12/23 00:03:06;;;;;;;16.50;2.80;;;;;;;4.97;83.80;100995.00;5157611;27;20839;-57
2020/12/23 00:05:33;;;;;;;12.03;2.27;;;;;;;4.86;84.52;101001.94;5155018;27;20486;-58
2020/12/23 00:08:00;;;;;;;9.20;2.90;;;;;;;4.89;84.73;101001.25;5157430;27;20554;-58
2020/12/23 00:10:27;;;;;;;10.00;2.40;;;;;;;4.95;84.49;100991.44;5155388;27;20475;-55
2020/12/23 00:12:53;;;;;;;17.33;2.77;;;;;;;4.94;84.33;100993.91;5157033;27;20455;-55
2020/12/23 00:15:20;;;;;;;18.00;3.63;;;;;;;4.84;84.46;100988.16;5154871;27;20486;-57
2020/12/23 00:17:47;;;;;;;9.03;2.43;;;;;;;4.90;84.57;100987.69;5157382;27;20451;-52
2020/12/23 00:20:13;;;;;;;14.00;2.93;;;;;;;4.90;84.42;100994.47;5155590;27;20770;-55
2020/12/23 00:22:40;;;;;;;16.53;2.97;;;;;;;4.77;85.38;100977.41;5161408;27;20429;-57
2020/12/23 00:25:08;;;;;;;18.03;3.87;;;;;;;4.79;84.99;100980.94;5159070;27;20475;-55
2020/12/23 00:27:34;;;;;;;18.73;3.47;;;;;;;4.61;85.35;100978.03;5161008;27;20542;-59
2020/12/23 00:30:01;;;;;;;12.90;2.50;;;;;;;4.54;85.59;100971.56;5158735;27;20474;-56
2020/12/23 00:32:29;;;;;;;14.57;2.87;;;;;;;4.53;85.61;100969.81;5161257;27;20455;-57
2020/12/23 00:34:56;;;;;;;11.20;2.80;;;;;;;4.48;85.69;100969.50;5159077;27;20506;-55
2020/12/23 00:37:22;;;;;;;10.60;2.53;;;;;;;4.40;86.05;100974.06;5160828;27;20494;-56
2020/12/23 00:39:49;;;;;;;17.47;3.43;;;;;;;4.39;85.66;100967.19;5159243;27;20566;-56
2020/12/23 00:42:21;;;;;;;11.50;2.77;;;;;;;4.33;86.27;100972.72;5160651;27;20542;-59
2020/12/23 00:44:48;;;;;;;24.53;2.90;;;;;;;4.32;86.36;100976.06;5158773;27;20567;-56
2020/12/23 00:47:14;;;;;;;17.03;3.23;;;;;;;4.42;85.72;100962.25;5160758;27;20454;-58
2020/12/23 00:49:41;;;;;;;13.53;3.13;;;;;;;4.50;86.33;100964.50;5159062;27;20452;-57
2020/12/23 00:52:08;;;;;;;12.60;2.93;;;;;;;4.41;85.65;100970.72;5160847;27;20429;-57
2020/12/23 00:54:35;;;;;;;13.97;3.77;;;;;;;4.41;86.16;100977.50;5158708;27;20485;-56
2020/12/23 00:57:03;;;;;;;11.43;3.10;;;;;;;4.36;85.89;100973.75;5160583;27;20455;-56
2020/12/23 00:59:30;;;;;;;16.40;3.60;;;;;;;4.27;86.03;100971.44;5158218;27;20479;-57
2020/12/23 01:01:58;;;;;;;14.17;4.20;;;;;;;4.40;86.23;100962.94;5160507;27;20900;-56
2020/12/23 01:04:25;;;;;;;25.27;9.97;;;;;;;4.55;86.36;100958.00;5158710;27;20478;-58
2020/12/23 01:06:51;;;;;;;19.40;4.10;;;;;;;4.72;85.40;100966.88;5160007;27;20462;-54
2020/12/23 01:09:18;;;;;;;16.30;2.83;;;;;;;4.53;85.22;100969.81;5158816;27;20542;-59
2020/12/23 01:11:44;;;;;;;22.40;3.37;;;;;;;4.28;86.23;100979.19;5160327;27;20550;-56
2020/12/23 01:14:11;;;;;;;15.30;3.73;;;;;;;4.07;86.74;100977.66;5158662;27;20664;-60
2020/12/23 01:16:38;;;;;;;19.73;2.73;;;;;;;4.18;86.58;100972.56;5160425;27;20490;-53
2020/12/23 01:19:05;;;;;;;17.10;3.60;;;;;;;4.16;87.02;100983.44;5158880;27;20576;-56
2020/12/23 01:21:32;;;;;;;14.10;3.10;;;;;;;4.13;87.18;100985.75;5160057;27;20896;-58
2020/12/23 01:23:58;;;;;;;13.30;3.60;;;;;;;4.18;86.72;100998.09;5158293;27;20907;-52
2020/12/23 01:26:25;;;;;;;8.70;2.80;;;;;;;4.05;87.00;101005.63;5159797;27;20588;-52
2020/12/23 01:28:52;;;;;;;23.53;3.10;;;;;;;3.99;87.10;101007.78;5158390;27;20896;-60
2020/12/23 01:31:18;;;;;;;7.67;2.53;;;;;;;3.98;87.64;101001.75;5160039;27;20486;-53
2020/12/23 01:34:02;;;;;;;16.73;2.70;;;;;;;3.86;87.97;100999.22;5157013;27;20551;-53
2020/12/23 01:36:29;;;;;;;16.63;2.60;;;;;;;3.73;88.78;101012.75;5159987;27;20742;-56
2020/12/23 01:38:57;;;;;;;16.53;3.03;;;;;;;3.69;88.70;100994.53;5147775;27;20529;-55
2020/12/23 01:41:24;;;;;;;17.93;3.40;;;;;;;3.81;88.31;100998.00;5141714;27;20491;-54
2020/12/23 01:43:53;;;;;;;25.10;3.63;;;;;;;3.72;88.34;100997.31;5159598;27;20459;-59
2020/12/23 01:46:29;;;;;;;16.00;3.40;;;;;;;3.75;88.46;101000.97;5159283;27;20438;-56
2020/12/23 01:48:57;;;;;;;15.93;2.73;;;;;;;3.90;88.72;100995.22;5152687;27;20474;-54
2020/12/23 01:51:25;;;;;;;16.87;3.47;;;;;;;3.70;88.62;100997.19;5159379;27;20491;-60
2020/12/23 01:53:54;;;;;;;11.33;3.20;;;;;;;3.70;88.56;100996.31;5158041;27;20534;-57
2020/12/23 01:56:21;;;;;;;21.53;4.30;;;;;;;3.55;88.76;101002.06;5159162;27;20526;-59
2020/12/23 01:58:48;;;;;;;11.40;3.33;;;;;;;3.46;89.26;101004.81;5159464;27;20462;-56
2020/12/23 02:01:17;;;;;;;14.07;3.60;;;;;;;3.55;88.99;100999.53;5157383;27;20785;-57
2020/12/23 02:03:44;;;;;;;14.93;4.17;;;;;;;3.51;89.16;100997.50;5159278;27;20465;-58
2020/12/23 02:06:11;;;;;;;12.70;3.17;;;;;;;3.54;88.77;100990.06;5156981;27;20454;-58
2020/12/23 02:08:40;;;;;;;17.90;3.90;;;;;;;3.48;89.07;101005.81;5159244;27;20461;-52
2020/12/23 02:11:07;;;;;;;28.20;5.97;;;;;;;3.56;89.18;100996.19;5157620;27;20479;-56
2020/12/23 02:13:34;;;;;;;22.60;4.00;;;;;;;3.57;88.76;100990.31;5159187;27;20534;-53
2020/12/23 02:16:01;;;;;;;18.63;4.20;;;;;;;3.57;89.00;100994.50;5156841;27;20558;-56
2020/12/23 02:18:28;;;;;;;11.40;3.33;;;;;;;3.62;89.14;100995.75;5158897;27;20482;-58
2020/12/23 02:20:55;;;;;;;16.57;4.03;;;;;;;3.65;88.67;100996.84;5157338;27;20562;-59
2020/12/23 02:23:22;;;;;;;10.63;2.77;;;;;;;3.74;88.50;100993.22;5158595;27;20451;-54
2020/12/23 02:25:49;;;;;;;15.47;3.17;;;;;;;3.76;88.19;100989.09;5156517;27;20546;-53
2020/12/23 02:28:15;;;;;;;26.57;3.53;;;;;;;3.70;88.45;100975.91;5158630;27;20806;-59
2020/12/23 02:30:42;;;;;;;13.30;3.23;;;;;;;3.78;88.15;100979.88;5156946;27;20450;-54
2020/12/23 02:33:09;;;;;;;18.70;3.87;;;;;;;3.73;87.63;100982.09;5159034;27;20479;-56
2020/12/23 02:35:35;;;;;;;50.17;18.43;;;;;;;3.63;88.66;100977.09;5156704;27;20475;-51
2020/12/23 02:38:02;;;;;;;17.93;4.73;;;;;;;3.64;88.09;100969.56;5158583;27;20436;-56
2020/12/23 02:40:29;;;;;;;19.30;5.00;;;;;;;3.48;88.08;100979.41;5156837;27;20542;-56
2020/12/23 02:42:56;;;;;;;27.83;7.23;;;;;;;3.33;89.95;100976.63;5158396;27;20437;-55
2020/12/23 02:45:23;;;;;;;15.13;4.50;;;;;;;3.19;90.39;100975.59;5156370;27;20514;-58
2020/12/23 02:47:49;;;;;;;29.17;10.10;;;;;;;3.24;91.41;100979.38;5153351;27;20559;-57
2020/12/23 02:50:16;;;;;;;14.47;4.30;;;;;;;3.63;89.71;100975.44;5156668;27;20485;-58
2020/12/23 02:52:43;;;;;;;22.33;4.43;;;;;;;3.61;88.83;100969.34;5158384;27;20491;-58
2020/12/23 02:55:09;;;;;;;15.47;4.30;;;;;;;3.46;89.33;100970.75;5156003;27;20482;-58
2020/12/23 02:57:37;;;;;;;20.70;4.83;;;;;;;3.25;90.14;100968.41;5158569;27;20453;-55
2020/12/23 03:00:04;;;;;;;18.37;6.03;;;;;;;3.33;90.09;100974.94;5156542;27;20490;-56
2020/12/23 03:02:31;;;;;;;30.73;6.70;;;;;;;3.21;90.09;100976.59;5157646;27;20501;-57
2020/12/23 03:04:59;;;;;;;18.67;5.70;;;;;;;3.20;90.44;100977.34;5155249;27;20479;-55
2020/12/23 03:07:27;;;;;;;28.97;7.20;;;;;;;3.22;90.68;100970.69;5158178;27;20516;-56
2020/12/23 03:09:53;;;;;;;22.87;6.70;;;;;;;3.26;90.61;100966.72;5156551;27;20472;-57
2020/12/23 03:12:20;;;;;;;24.33;8.43;;;;;;;3.20;90.80;100972.25;5158116;27;20538;-59
2020/12/23 03:14:48;;;;;;;24.40;9.27;;;;;;;3.24;91.29;100974.28;5156052;27;20952;-54
2020/12/23 03:17:14;;;;;;;24.60;9.43;;;;;;;3.26;91.33;100972.72;5157588;27;20904;-55
2020/12/23 03:19:41;;;;;;;21.93;7.83;;;;;;;3.27;91.18;100963.41;5156367;27;20467;-56
2020/12/23 03:22:07;;;;;;;20.20;6.40;;;;;;;3.45;89.99;100984.28;5157879;27;20512;-54
2020/12/23 03:24:34;;;;;;;31.17;6.90;;;;;;;3.43;90.06;100978.19;5155500;27;21275;-55
2020/12/23 03:27:00;;;;;;;22.23;6.60;;;;;;;3.20;90.90;100982.47;5157669;27;20538;-58
2020/12/23 03:29:27;;;;;;;15.73;5.37;;;;;;;3.42;90.02;100979.84;5156725;27;20446;-57
2020/12/23 03:31:54;;;;;;;15.30;5.70;;;;;;;3.46;89.52;100980.97;5158053;27;20888;-56
2020/12/23 03:34:21;;;;;;;15.17;5.30;;;;;;;3.33;90.02;100976.63;5155742;27;20803;-57
2020/12/23 03:36:48;;;;;;;26.73;6.20;;;;;;;3.30;90.33;100982.38;5157725;27;20738;-55
2020/12/23 03:39:14;;;;;;;19.87;5.70;;;;;;;3.42;89.53;100974.75;5156125;27;20466;-56
2020/12/23 03:41:41;;;;;;;20.97;5.77;;;;;;;3.29;90.36;100964.41;5157842;27;20756;-54
2020/12/23 03:44:07;;;;;;;21.97;5.40;;;;;;;3.36;90.27;100969.19;5155943;27;20478;-51
2020/12/23 03:46:34;;;;;;;15.17;5.43;;;;;;;3.45;89.91;100974.09;5157567;27;20475;-56
2020/12/23 03:49:02;;;;;;;18.77;6.23;;;;;;;3.36;90.33;100967.53;5156485;27;20504;-56
2020/12/23 03:51:28;;;;;;;23.00;6.73;;;;;;;3.13;90.80;100960.69;5157188;27;20481;-58
2020/12/23 03:53:55;;;;;;;14.93;5.60;;;;;;;3.30;91.06;100961.09;5156269;27;20544;-57
2020/12/23 03:56:22;;;;;;;26.27;6.37;;;;;;;3.23;90.87;100963.19;5159722;27;20871;-57
2020/12/23 03:58:48;;;;;;;21.50;7.23;;;;;;;3.16;91.50;100960.94;5161944;27;20455;-53
2020/12/23 04:01:15;;;;;;;20.80;6.73;;;;;;;3.54;90.63;100956.91;5159816;27;20479;-57
2020/12/23 04:03:41;;;;;;;21.10;5.77;;;;;;;3.24;90.64;100956.44;5161773;27;20525;-54
2020/12/23 04:06:09;;;;;;;18.50;6.23;;;;;;;3.14;91.46;100967.59;5159770;27;20471;-54
2020/12/23 04:08:36;;;;;;;18.70;6.60;;;;;;;3.08;91.55;100967.13;5161926;27;20524;-59
2020/12/23 04:11:02;;;;;;;20.93;6.80;;;;;;;3.09;92.13;100969.78;5159986;27;20467;-53
2020/12/23 04:13:29;;;;;;;19.37;6.87;;;;;;;3.02;92.23;100962.44;5161692;27;20457;-58
2020/12/23 04:15:55;;;;;;;23.93;6.20;;;;;;;3.09;91.95;100959.59;5159178;27;20471;-54
2020/12/23 04:18:22;;;;;;;31.47;7.57;;;;;;;3.01;91.89;100957.22;5161532;27;20764;-57
2020/12/23 04:20:48;;;;;;;62.13;8.43;;;;;;;2.78;92.87;100952.16;5159375;27;20554;-55
2020/12/23 04:23:16;;;;;;;171.73;12.10;;;;;;;2.83;92.10;100949.97;5161617;27;20433;-57
2020/12/23 04:25:42;;;;;;;47.43;9.43;;;;;;;2.87;92.19;100946.00;5159522;27;20456;-57
2020/12/23 04:28:09;;;;;;;63.33;9.67;;;;;;;2.75;92.08;100945.94;5161338;27;20739;-56
2020/12/23 04:30:36;;;;;;;49.40;8.27;;;;;;;2.65;92.74;100952.00;5159348;27;20459;-57
2020/12/23 04:33:03;;;;;;;27.23;9.23;;;;;;;2.94;91.71;100950.78;5140278;27;20495;-57
2020/12/23 04:35:31;;;;;;;24.73;7.87;;;;;;;3.01;91.25;100944.47;5138301;27;20549;-53
2020/12/23 04:37:58;;;;;;;40.97;8.77;;;;;;;2.86;90.98;100949.31;5140466;27;20426;-57
2020/12/23 04:40:25;;;;;;;33.53;8.60;;;;;;;2.78;91.37;100951.28;5139027;27;20450;-53
2020/12/23 04:42:52;;;;;;;22.57;8.03;;;;;;;2.71;91.50;100949.91;5140234;27;20456;-57
2020/12/23 04:45:22;;;;;;;20.20;8.70;;;;;;;2.74;91.60;100955.25;5138063;27;20483;-56
2020/12/23 04:47:51;;;;;;;20.10;8.37;;;;;;;2.74;91.53;100956.91;5140356;27;20430;-57
2020/12/23 04:50:18;;;;;;;31.63;7.73;;;;;;;2.75;91.76;100953.59;5138389;27;20468;-57
2020/12/23 04:52:45;;;;;;;57.73;8.50;;;;;;;2.63;91.42;100945.91;5140300;27;20869;-54
2020/12/23 04:55:11;;;;;;;54.77;8.40;;;;;;;2.62;91.72;100944.13;5138084;27;20486;-57
2020/12/23 04:57:40;;;;;;;94.73;8.43;;;;;;;2.61;91.75;100934.72;5139717;27;20495;-57
2020/12/23 05:00:08;;;;;;;76.80;9.50;;;;;;;2.57;92.62;100941.22;5140287;27;20537;-53
2020/12/23 05:02:34;;;;;;;61.97;9.57;;;;;;;2.73;93.26;100935.66;5160525;27;20482;-56
2020/12/23 05:05:16;;;;;;;69.13;9.47;;;;;;;2.65;91.58;100936.69;5158582;27;20554;-57
2020/12/23 05:07:42;;;;;;;81.00;10.23;;;;;;;2.37;91.71;100932.03;5160127;27;20462;-57
2020/12/23 05:10:09;;;;;;;104.93;10.80;;;;;;;2.26;92.36;100944.81;5158835;27;20502;-52
2020/12/23 05:12:36;;;;;;;53.43;11.20;;;;;;;2.47;93.10;100937.09;5160528;27;20897;-55
2020/12/23 05:15:05;;;;;;;76.73;11.33;;;;;;;2.57;92.98;100933.59;5158729;27;20836;-59
2020/12/23 05:17:31;;;;;;;66.23;10.33;;;;;;;2.51;92.24;100934.00;5160513;27;20546;-57
2020/12/23 05:19:58;;;;;;;84.37;11.47;;;;;;;2.45;92.81;100928.41;5158818;27;20482;-56
2020/12/23 05:22:26;;;;;;;45.17;11.10;;;;;;;2.55;93.45;100938.56;5160415;27;20801;-52
2020/12/23 05:24:54;;;;;;;123.00;10.70;;;;;;;2.40;92.85;100933.16;5158341;27;20554;-60
2020/12/23 05:27:22;;;;;;;83.57;11.60;;;;;;;2.59;93.53;100934.59;5160296;27;20462;-56
2020/12/23 05:29:48;;;;;;;72.23;10.20;;;;;;;2.54;92.70;100938.44;5158633;27;20592;-60
2020/12/23 05:32:16;;;;;;;49.60;10.77;;;;;;;2.51;93.28;100946.72;5160121;27;20470;-57
2020/12/23 05:34:43;;;;;;;134.30;13.23;;;;;;;2.35;93.01;100953.97;5157536;27;20464;-53
2020/12/23 05:37:10;;;;;;;47.73;11.10;;;;;;;2.41;93.71;100949.34;5160026;27;20455;-51
2020/12/23 05:39:37;;;;;;;45.53;11.03;;;;;;;2.50;94.10;100957.69;5158301;27;20805;-56
2020/12/23 05:42:04;;;;;;;125.53;13.57;;;;;;;2.58;93.34;100954.84;5159708;27;20450;-59
2020/12/23 05:44:30;;;;;;;46.43;11.00;;;;;;;2.56;94.19;100963.25;5157903;27;20453;-58
2020/12/23 05:46:57;;;;;;;65.70;12.07;;;;;;;2.37;93.74;100967.69;5159915;27;20546;-56
2020/12/23 05:49:25;;;;;;;98.00;12.50;;;;;;;2.38;93.84;100960.19;5158167;27;20459;-53
2020/12/23 05:51:52;;;;;;;87.20;11.93;;;;;;;2.63;93.44;100958.63;5159769;27;20542;-58
2020/12/23 05:54:20;;;;;;;75.53;10.33;;;;;;;2.74;93.12;100950.16;5157593;27;20538;-57
2020/12/23 05:56:50;;;;;;;91.67;10.30;;;;;;;2.72;92.72;100946.59;5159818;27;20447;-56
2020/12/23 05:59:16;;;;;;;72.07;9.80;;;;;;;2.63;92.43;100940.81;5158040;27;20456;-59
2020/12/23 06:01:45;;;;;;;60.63;10.43;;;;;;;2.46;92.52;100953.13;5159174;27;20454;-54
2020/12/23 06:04:14;;;;;;;62.13;11.63;;;;;;;2.43;92.99;100960.53;5157624;27;20466;-53
2020/12/23 06:07:03;;;;;;;53.23;9.50;;;;;;;2.50;92.95;100949.16;5159413;27;20447;-56
2020/12/23 06:09:39;;;;;;;148.13;13.07;;;;;;;2.41;93.08;100946.81;5157895;27;20474;-57
2020/12/23 06:12:17;;;;;;;102.77;12.63;;;;;;;2.31;93.69;100952.84;5159487;27;20827;-56
2020/12/23 06:14:54;;;;;;;72.50;11.57;;;;;;;2.38;93.54;100959.28;5157615;27;20445;-56
2020/12/23 06:17:22;;;;;;;61.17;9.90;;;;;;;2.32;94.07;100956.25;5159156;27;20453;-56
2020/12/23 06:19:50;;;;;;;115.50;12.70;;;;;;;2.24;93.98;100961.63;5157024;27;20778;-57
2020/12/23 06:22:17;;;;;;;42.70;10.57;;;;;;;2.14;94.06;100951.50;5159218;27;20461;-57
2020/12/23 06:24:45;;;;;;;234.03;17.40;;;;;;;2.20;94.27;100951.97;5156557;27;20470;-56
2020/12/23 06:27:12;;;;;;;116.93;14.10;;;;;;;2.11;94.02;100948.72;5159061;27;20430;-58
2020/12/23 06:29:41;;;;;;;88.03;11.90;;;;;;;2.14;94.24;100952.38;5157402;27;20474;-57
2020/12/23 06:32:10;;;;;;;107.13;12.23;;;;;;;2.12;94.21;100953.03;5158983;27;20450;-59
2020/12/23 06:34:38;;;;;;;115.47;13.10;;;;;;;2.05;94.61;100963.50;5156926;27;20558;-56
2020/12/23 06:37:19;;;;;;;131.63;14.20;;;;;;;1.98;94.22;100975.75;5158899;27;20520;-58
2020/12/23 06:39:46;;;;;;;154.43;13.63;;;;;;;1.94;94.65;100975.38;5157031;27;20558;-60
2020/12/23 06:42:27;;;;;;;157.13;12.47;;;;;;;1.88;94.12;100976.66;5158518;27;20556;-57
2020/12/23 06:44:56;;;;;;;48.60;8.07;;;;;;;1.97;94.51;100981.59;5156775;27;20460;-60
2020/12/23 06:47:23;;;;;;;55.03;9.07;;;;;;;1.88;94.14;100985.94;5158755;27;20429;-55
2020/12/23 06:49:51;;;;;;;75.20;9.87;;;;;;;1.91;94.26;100976.03;5157113;27;20561;-57
2020/12/23 06:52:41;;;;;;;128.47;11.27;;;;;;;1.89;94.23;100980.06;5158601;27;20530;-56
2020/12/23 06:55:08;;;;;;;143.77;12.10;;;;;;;1.81;94.23;100978.59;5156435;27;20471;-57
2020/12/23 06:58:02;;;;;;;139.83;12.23;;;;;;;1.71;94.39;100975.31;5158669;27;20447;-59
2020/12/23 07:00:41;;;;;;;59.23;10.00;;;;;;;1.83;94.29;100967.75;5155968;27;20445;-52
2020/12/23 07:03:09;;;;;;;47.60;8.77;;;;;;;1.88;94.04;100968.13;5158492;27;20490;-54
2020/12/23 07:05:43;;;;;;;86.10;9.47;;;;;;;1.78;93.64;100968.16;5156287;27;20726;-57
2020/12/23 07:08:12;;;;;;;57.07;8.70;;;;;;;1.70;93.61;100965.88;5158417;27;20485;-52
2020/12/23 07:10:40;;;;;;;104.83;11.43;;;;;;;1.62;93.33;100966.91;5156497;27;20550;-51
2020/12/23 07:13:08;;;;;;;17.77;7.30;;;;;;;1.79;93.63;100977.56;5158322;27;20432;-50
2020/12/23 07:15:36;;;;;;;116.57;11.23;;;;;;;1.53;93.15;100978.91;5156156;27;20463;-58
2020/12/23 07:18:07;;;;;;;174.93;15.70;;;;;;;1.47;93.37;100979.28;5158343;27;20426;-58
2020/12/23 07:20:39;;;;;;;58.67;9.53;;;;;;;1.46;93.63;100986.03;5156338;27;20458;-56
2020/12/23 07:23:08;;;;;;;51.00;9.10;;;;;;;1.51;93.05;100976.22;5158231;27;20498;-58
2020/12/23 07:25:42;;;;;;;59.40;8.30;;;;;;;1.50;93.33;100983.72;5155921;27;20458;-53
2020/12/23 07:28:10;;;;;;;138.90;16.63;;;;;;;1.48;93.06;100976.84;5157897;27;20499;-54
2020/12/23 07:30:40;;;;;;;78.93;9.80;;;;;;;1.33;93.35;100973.94;5154523;27;20939;-54
2020/12/23 07:33:09;;;;;;;118.90;11.93;;;;;;;1.27;93.62;100970.88;5158091;27;20843;-55
2020/12/23 07:35:37;;;;;;;66.80;9.67;;;;;;;1.38;93.32;100974.31;5155951;27;20533;-54
2020/12/23 07:38:05;;;;;;;53.97;8.53;;;;;;;1.41;93.22;100972.03;5157988;27;20463;-55
2020/12/23 07:40:33;;;;;;;145.23;14.57;;;;;;;1.41;92.98;100972.03;5155764;27;20751;-57
2020/12/23 07:43:00;;;;;;;88.90;11.30;;;;;;;1.15;93.36;100978.41;5157842;27;20417;-55
2020/12/23 07:45:29;;;;;;;31.13;8.37;;;;;;;1.07;93.29;100974.31;5155595;27;20544;-60
2020/12/23 07:47:58;;;;;;;22.43;7.57;;;;;;;1.39;93.69;100973.53;5158213;27;20787;-51
2020/12/23 07:50:25;;;;;;;32.13;9.30;;;;;;;1.24;93.48;100972.28;5156141;27;20471;-57
2020/12/23 07:52:52;;;;;;;39.63;8.90;;;;;;;1.21;93.64;100972.94;5157795;27;20436;-57
2020/12/23 07:55:20;;;;;;;37.70;8.97;;;;;;;1.24;93.24;100967.22;5155643;27;20445;-59
2020/12/23 07:57:48;;;;;;;165.70;14.80;;;;;;;1.27;92.99;100972.56;5157908;27;20447;-57
2020/12/23 08:00:16;;;;;;;57.87;10.90;;;;;;;1.15;93.22;100965.69;5155831;27;20848;-53
2020/12/23 08:02:43;;;;;;;33.13;8.37;;;;;;;1.17;93.37;100959.06;5157514;27;20877;-53
2020/12/23 08:05:12;;;;;;;26.40;8.33;;;;;;;1.12;93.29;100954.38;5155853;27;20469;-57
2020/12/23 08:07:42;;;;;;;108.97;11.73;;;;;;;1.02;93.89;100953.59;5157651;27;20434;-53
2020/12/23 08:10:12;;;;;;;71.93;9.47;;;;;;;1.06;93.36;100944.59;5155910;27;20524;-59
2020/12/23 08:12:40;;;;;;;90.77;9.70;;;;;;;1.07;93.39;100939.63;5157896;27;20419;-55
2020/12/23 08:15:11;;;;;;;54.27;8.03;;;;;;;1.05;93.19;100930.09;5146335;27;20554;-51
2020/12/23 08:17:39;;;;;;;36.63;8.63;;;;;;;0.94;93.40;100929.22;5157694;27;20550;-53
2020/12/23 08:20:08;;;;;;;137.93;11.70;;;;;;;0.88;93.51;100924.50;5155804;27;20550;-59
2020/12/23 08:22:36;;;;;;;86.67;10.03;;;;;;;0.98;93.61;100918.56;5157166;27;20474;-54
2020/12/23 08:25:09;;;;;;;52.07;8.37;;;;;;;0.97;93.40;100931.13;5155334;27;20454;-54
2020/12/23 08:27:37;;;;;;;76.77;9.60;;;;;;;0.87;93.41;100925.25;5157334;27;20916;-57
2020/12/23 08:30:06;;;;;;;94.50;10.27;;;;;;;0.76;93.69;100920.91;5155913;27;20562;-54
2020/12/23 08:32:39;;;;;;;110.00;11.23;;;;;;;0.85;93.86;100926.78;5157520;27;20425;-58
2020/12/23 08:35:06;;;;;;;70.60;9.77;;;;;;;0.83;93.90;100913.09;5155256;27;20534;-60
2020/12/23 08:37:34;;;;;;;91.90;11.63;;;;;;;0.79;94.08;100922.09;5157525;27;20506;-58
2020/12/23 08:40:01;;;;;;;72.33;9.67;;;;;;;0.83;93.87;100918.16;5155443;27;20537;-58
2020/12/23 08:42:28;;;;;;;134.70;11.40;;;;;;;0.80;93.45;100913.72;5159204;27;20458;-59
2020/12/23 08:44:56;;;;;;;83.10;9.60;;;;;;;0.74;93.96;100917.38;5158808;27;20479;-58
2020/12/23 08:47:26;;;;;;;46.22;9.25;;;;;;;0.72;94.32;100916.38;5161284;27;20521;-61
2020/12/23 08:49:55;;;;;;;55.80;8.63;;;;;;;0.87;93.78;100917.63;5159318;27;20642;-58
2020/12/23 08:52:23;;;;;;;81.67;10.37;;;;;;;0.90;93.73;100912.81;5161160;27;20420;-57
2020/12/23 08:54:51;;;;;;;154.27;12.70;;;;;;;0.83;93.65;100908.00;5158966;27;20461;-56
2020/12/23 08:57:23;;;;;;;205.57;15.07;;;;;;;0.78;93.56;100899.09;5160669;27;20455;-56
2020/12/23 08:59:50;;;;;;;138.27;11.65;;;;;;;0.84;93.31;100902.16;5159128;27;20502;-55
2020/12/23 09:02:17;;;;;;;51.53;8.43;;;;;;;0.87;93.36;100910.00;5160623;27;20316;-59
2020/12/23 09:04:44;;;;;;;57.80;7.80;;;;;;;0.98;93.35;100907.50;5158691;27;20465;-51
2020/12/23 09:07:13;;;;;;;198.20;12.87;;;;;;;0.89;93.23;100898.34;5160647;27;20198;-51
2020/12/23 09:09:40;;;;;;;41.80;9.95;;;;;;;0.88;93.40;100906.69;5158557;27;20474;-57
2020/12/23 09:12:06;;;;;;;160.93;13.93;;;;;;;0.78;93.19;100907.59;5160692;27;20607;-58
2020/12/23 09:14:35;;;;;;;65.82;9.65;;;;;;;0.99;93.88;100905.06;5158704;27;20753;-58
2020/12/23 09:17:04;;;;;;;162.23;14.00;;;;;;;0.94;93.50;100912.28;5160637;27;20232;-56
2020/12/23 09:19:49;;;;;;;73.03;9.80;;;;;;;1.00;94.02;100906.84;5158684;27;20458;-54
2020/12/23 09:22:28;;;;;;;89.32;10.85;;;;;;;1.23;93.12;100914.59;5160285;27;20577;-56
2020/12/23 09:25:19;;;;;;;88.97;11.63;;;;;;;1.20;93.07;100898.34;5158151;27;20234;-59
2020/12/23 09:27:47;;;;;;;47.37;11.00;;;;;;;1.18;93.42;100894.75;5160261;27;20817;-55
2020/12/23 09:30:28;;;;;;;73.87;11.50;;;;;;;1.23;93.49;100899.34;5156589;27;20498;-59
2020/12/23 09:32:55;;;;;;;69.27;11.77;;;;;;;1.20;93.82;100893.25;5159767;27;20441;-58
2020/12/23 09:35:23;;;;;;;49.00;10.60;;;;;;;1.31;93.50;100893.22;5157969;27;20910;-57
2020/12/23 09:38:02;;;;;;;198.60;15.93;;;;;;;1.17;93.52;100892.97;5159899;27;20541;-61
2020/12/23 09:40:29;;;;;;;116.67;13.77;;;;;;;1.21;94.02;100887.41;5158326;27;20830;-57
2020/12/23 09:42:55;;;;;;;124.40;14.80;;;;;;;1.21;94.41;100881.41;5159520;27;20782;-56
2020/12/23 09:45:22;;;;;;;126.30;13.40;;;;;;;1.24;94.16;100889.31;5157576;27;20979;-56
2020/12/23 09:47:49;;;;;;;154.50;14.13;;;;;;;1.45;94.11;100887.59;5159446;27;20437;-57
2020/12/23 09:50:15;;;;;;;60.50;10.70;;;;;;;1.50;93.77;100889.63;5158235;27;20318;-54
2020/12/23 09:52:42;;;;;;;57.97;10.80;;;;;;;1.42;94.10;100866.09;5159472;27;20424;-58
2020/12/23 09:55:10;;;;;;;164.87;15.57;;;;;;;1.38;94.27;100875.13;5156977;27;20450;-55
2020/12/23 09:57:37;;;;;;;143.83;14.90;;;;;;;1.56;94.14;100875.75;5159349;27;20855;-51
2020/12/23 10:00:05;;;;;;;145.37;14.17;;;;;;;1.48;94.20;100884.41;5157235;27;20572;-59
2020/12/23 10:02:32;;;;;;;81.77;11.10;;;;;;;1.68;94.32;100880.91;5159307;27;20979;-57
2020/12/23 10:04:59;;;;;;;88.43;14.40;;;;;;;1.67;94.52;100873.16;5156763;27;20496;-51
2020/12/23 10:07:25;;;;;;;70.03;11.23;;;;;;;1.71;94.57;100865.00;5158992;27;20447;-55
2020/12/23 10:09:52;;;;;;;140.53;14.30;;;;;;;1.65;94.69;100864.53;5156886;27;20934;-57
2020/12/23 10:12:22;;;;;;;53.10;10.10;;;;;;;1.69;94.93;100857.25;5159160;27;20451;-57
2020/12/23 10:14:50;;;;;;;100.57;13.10;;;;;;;1.84;94.99;100851.63;5156742;27;20536;-55
2020/12/23 10:17:16;;;;;;;49.63;9.40;;;;;;;1.76;94.51;100851.00;5159217;27;20479;-55
2020/12/23 10:19:43;;;;;;;107.03;11.47;;;;;;;1.79;94.89;100858.00;5156499;27;20551;-57
2020/12/23 10:22:10;;;;;;;40.70;9.17;;;;;;;1.86;94.86;100844.97;5159040;27;20553;-58
2020/12/23 10:24:36;;;;;;;64.47;10.57;;;;;;;1.82;95.00;100836.22;5156645;27;20492;-55
2020/12/23 10:27:03;;;;;;;80.77;10.37;;;;;;;1.85;95.21;100825.41;5158937;27;20513;-57
2020/12/23 10:29:31;;;;;;;29.50;8.80;;;;;;;1.83;95.31;100819.28;5156208;27;20461;-58
2020/12/23 10:31:58;;;;;;;121.70;15.83;;;;;;;1.89;95.71;100805.38;5158898;27;20426;-52
2020/12/23 10:34:25;;;;;;;20.93;8.90;;;;;;;2.10;95.74;100809.47;5156780;27;20450;-55
2020/12/23 10:36:51;;;;;;;27.93;9.80;;;;;;;2.14;95.67;100801.28;5158834;27;20542;-54
2020/12/23 10:39:18;;;;;;;29.80;8.77;;;;;;;2.21;95.54;100798.44;5156677;27;20449;-57
2020/12/23 10:41:45;;;;;;;47.93;11.00;;;;;;;2.31;95.42;100799.16;5158435;27;20450;-54
2020/12/23 10:44:12;;;;;;;20.37;9.90;;;;;;;2.39;95.00;100790.41;5156522;27;20473;-58
2020/12/23 10:46:40;;;;;;;33.80;10.43;;;;;;;2.37;94.82;100776.69;5158783;27;20784;-56
2020/12/23 10:49:07;;;;;;;21.20;9.10;;;;;;;2.40;94.99;100779.44;5156686;27;20542;-59
2020/12/23 10:51:34;;;;;;;24.77;9.60;;;;;;;2.39;95.20;100787.88;5158499;27;20913;-56
2020/12/23 10:54:00;;;;;;;27.73;9.20;;;;;;;2.45;94.98;100784.91;5156381;27;20762;-57
2020/12/23 10:56:27;;;;;;;22.20;9.90;;;;;;;2.54;94.69;100775.41;5157894;27;20989;-56
2020/12/23 10:58:54;;;;;;;29.97;11.17;;;;;;;2.55;94.81;100770.44;5156498;27;20487;-56
2020/12/23 11:01:21;;;;;;;74.57;31.43;;;;;;;2.68;95.69;100769.66;5158066;27;20532;-54
2020/12/23 11:03:48;;;;;;;66.30;26.53;;;;;;;2.80;95.62;100767.16;5157966;27;20425;-55
2020/12/23 11:06:15;;;;;;;53.20;22.50;;;;;;;2.99;95.61;100763.38;5155752;27;21295;-59
2020/12/23 11:08:42;;;;;;;34.60;14.03;;;;;;;2.93;94.60;100770.59;5157935;27;20599;-56
2020/12/23 11:11:12;;;;;;;44.47;19.40;;;;;;;2.96;94.84;100771.69;5155959;27;20554;-58
2020/12/23 11:13:39;;;;;;;70.00;28.47;;;;;;;3.13;95.25;100771.13;5158056;27;20546;-57
2020/12/23 11:16:06;;;;;;;37.93;17.03;;;;;;;3.08;95.04;100769.13;5155668;27;20479;-57
2020/12/23 11:18:33;;;;;;;52.27;22.70;;;;;;;3.14;95.24;100775.47;5157396;27;20509;-57
2020/12/23 11:21:01;;;;;;;42.90;18.90;;;;;;;3.19;94.67;100763.94;5155946;27;20454;-57
2020/12/23 11:23:27;;;;;;;42.93;19.57;;;;;;;3.17;94.90;100762.94;5157780;27;20451;-59
2020/12/23 11:25:55;;;;;;;38.20;17.90;;;;;;;3.20;94.77;100751.31;5155660;27;20479;-59